Time;durP1;ratioP1;P1;durP2;ratioP2;P2;SDS_P1;SDS_P2;PMS_P1;PMS_P2;Temp;Humidity;BMP_temperature;BMP_pressure;BME280_temperature;BME280_humidity;BME280_pressure;Samples;Min_cycle;Max_cycle;Signal;HPM_P1;HPM_P2
2023/07/26 00:01:06;;;;;;;5.60;3.87;;;;;;;;;;5013024;28;20470;-74
2023/07/26 00:03:33;;;;;;;4.90;3.70;;;;;;;;;;5013427;28;20443;-74
2023/07/26 00:06:01;;;;;;;4.67;4.20;;;;;;;;;;5016709;28;20955;-74
2023/07/26 00:08:29;;;;;;;4.30;3.90;;;;;;;;;;5017078;28;20554;-74
2023/07/26 00:10:56;;;;;;;5.43;4.50;;;;;;;;;;5017307;28;20835;-74
2023/07/26 00:13:23;;;;;;;6.80;5.27;;;;;;;;;;5017371;28;20446;-74
2023/07/26 00:15:50;;;;;;;9.13;6.33;;;;;;;;;;5017314;28;20896;-74
2023/07/26 00:18:18;;;;;;;6.60;5.67;;;;;;;;;;5016934;28;20446;-74
2023/07/26 00:20:45;;;;;;;6.90;5.80;;;;;;;;;;5017141;28;20474;-73
2023/07/26 00:23:13;;;;;;;7.23;5.83;;;;;;;;;;5016768;28;20486;-74
2023/07/26 00:25:40;;;;;;;7.10;5.90;;;;;;;;;;5016974;28;20535;-74
2023/07/26 00:28:07;;;;;;;6.80;6.10;;;;;;;;;;5017219;28;20546;-75
2023/07/26 00:30:34;;;;;;;5.87;5.37;;;;;;;;;;5016667;28;20462;-75
2023/07/26 00:33:01;;;;;;;7.10;5.60;;;;;;;;;;5016660;28;20454;-74
2023/07/26 00:35:35;;;;;;;7.60;6.33;;;;;;;;;;5016819;28;20838;-74
2023/07/26 00:38:02;;;;;;;7.03;6.33;;;;;;;;;;5016646;28;20537;-73
2023/07/26 00:40:29;;;;;;;12.00;6.60;;;;;;;;;;5016383;28;20461;-73
2023/07/26 00:42:56;;;;;;;7.17;6.40;;;;;;;;;;5016380;28;20860;-73
2023/07/26 00:45:23;;;;;;;8.50;7.70;;;;;;;;;;5016348;28;20451;-74
2023/07/26 00:47:51;;;;;;;7.10;6.40;;;;;;;;;;5016665;28;20549;-74
2023/07/26 00:50:18;;;;;;;8.63;6.73;;;;;;;;;;5016654;28;20461;-74
2023/07/26 00:52:47;;;;;;;7.23;6.00;;;;;;;;;;5016505;28;20816;-74
2023/07/26 00:55:15;;;;;;;8.03;7.23;;;;;;;;;;5016662;28;20961;-74
2023/07/26 00:57:42;;;;;;;8.20;6.30;;;;;;;;;;5016494;28;20962;-74
2023/07/26 01:00:10;;;;;;;7.93;6.53;;;;;;;;;;5016260;28;20928;-74
2023/07/26 01:02:37;;;;;;;8.37;7.40;;;;;;;;;;5016107;28;20486;-74
2023/07/26 01:05:05;;;;;;;8.13;6.97;;;;;;;;;;5016345;28;20927;-74
2023/07/26 01:07:36;;;;;;;9.67;6.53;;;;;;;;;;5016349;28;20810;-74
2023/07/26 01:10:09;;;;;;;8.20;6.90;;;;;;;;;;5016069;28;20443;-74
2023/07/26 01:12:40;;;;;;;7.30;6.03;;;;;;;;;;5016226;28;20463;-74
2023/07/26 01:15:09;;;;;;;6.70;6.00;;;;;;;;;;5015582;28;20451;-74
2023/07/26 01:17:36;;;;;;;6.00;5.40;;;;;;;;;;5016395;28;20461;-74
2023/07/26 01:20:03;;;;;;;7.57;6.50;;;;;;;;;;5015759;28;20463;-74
2023/07/26 01:22:32;;;;;;;6.50;5.90;;;;;;;;;;5015943;28;20524;-74
2023/07/26 01:24:59;;;;;;;6.53;5.70;;;;;;;;;;5015931;28;20466;-74
2023/07/26 01:27:26;;;;;;;7.07;5.03;;;;;;;;;;5015622;28;20455;-74
2023/07/26 01:29:56;;;;;;;6.70;5.73;;;;;;;;;;5015861;28;20455;-74
2023/07/26 01:32:23;;;;;;;6.57;5.47;;;;;;;;;;5015690;28;20470;-74
2023/07/26 01:34:51;;;;;;;6.30;5.67;;;;;;;;;;5015504;28;20462;-75
2023/07/26 01:37:19;;;;;;;11.10;6.87;;;;;;;;;;5015509;28;20451;-73
2023/07/26 01:39:47;;;;;;;8.40;6.40;;;;;;;;;;5015660;28;20447;-73
2023/07/26 01:42:15;;;;;;;7.93;6.30;;;;;;;;;;5015561;28;21018;-74
2023/07/26 01:44:42;;;;;;;5.90;4.50;;;;;;;;;;5015610;28;20465;-74
2023/07/26 01:47:09;;;;;;;7.47;5.90;;;;;;;;;;5015706;28;20931;-73
2023/07/26 01:49:36;;;;;;;7.40;6.20;;;;;;;;;;5015505;28;20453;-73
2023/07/26 01:52:03;;;;;;;6.20;5.60;;;;;;;;;;5015418;28;20475;-73
2023/07/26 01:54:30;;;;;;;6.73;4.70;;;;;;;;;;5015420;28;20454;-73
2023/07/26 01:56:59;;;;;;;7.93;5.40;;;;;;;;;;5015181;28;20466;-73
2023/07/26 01:59:26;;;;;;;6.57;5.87;;;;;;;;;;5014984;28;20469;-74
2023/07/26 02:01:53;;;;;;;7.13;5.80;;;;;;;;;;5015218;28;20501;-75
2023/07/26 02:04:20;;;;;;;6.70;5.73;;;;;;;;;;5015108;28;20975;-74
2023/07/26 02:06:47;;;;;;;8.57;6.23;;;;;;;;;;5014890;28;20966;-75
2023/07/26 02:09:14;;;;;;;9.17;5.80;;;;;;;;;;5015099;28;20459;-75
2023/07/26 02:11:41;;;;;;;7.17;5.37;;;;;;;;;;5014826;28;20474;-75
2023/07/26 02:14:10;;;;;;;9.00;6.20;;;;;;;;;;5014731;28;20450;-75
2023/07/26 02:16:37;;;;;;;10.43;7.90;;;;;;;;;;5014745;28;20461;-75
2023/07/26 02:19:04;;;;;;;7.40;6.63;;;;;;;;;;5014551;28;20484;-75
2023/07/26 02:21:31;;;;;;;8.10;6.90;;;;;;;;;;5014863;28;20825;-75
2023/07/26 02:23:58;;;;;;;7.47;6.10;;;;;;;;;;5014419;28;20498;-74
2023/07/26 02:26:25;;;;;;;10.87;7.70;;;;;;;;;;5014487;28;20451;-74
2023/07/26 02:28:52;;;;;;;9.07;6.87;;;;;;;;;;5013759;28;20458;-75
2023/07/26 02:31:21;;;;;;;12.93;8.20;;;;;;;;;;5014560;28;20479;-75
2023/07/26 02:33:48;;;;;;;12.87;8.03;;;;;;;;;;5014685;28;20454;-75
2023/07/26 02:36:15;;;;;;;15.73;7.63;;;;;;;;;;5014576;28;20470;-75
2023/07/26 02:38:42;;;;;;;11.67;7.67;;;;;;;;;;5014143;28;20458;-74
2023/07/26 02:41:09;;;;;;;10.90;7.43;;;;;;;;;;5014299;28;20844;-75
2023/07/26 02:43:36;;;;;;;9.83;7.10;;;;;;;;;;5014146;28;20470;-75
2023/07/26 02:46:03;;;;;;;10.77;7.67;;;;;;;;;;5014136;28;20458;-75
2023/07/26 02:48:32;;;;;;;9.27;6.90;;;;;;;;;;5014231;28;20829;-75
2023/07/26 02:50:59;;;;;;;8.40;7.30;;;;;;;;;;5013933;28;20473;-75
2023/07/26 02:53:26;;;;;;;15.53;8.43;;;;;;;;;;5014151;28;20830;-75
2023/07/26 02:55:53;;;;;;;15.00;7.17;;;;;;;;;;5014122;28;20466;-75
2023/07/26 02:58:20;;;;;;;9.97;7.70;;;;;;;;;;5014431;28;20951;-75
2023/07/26 03:00:47;;;;;;;16.40;8.80;;;;;;;;;;5014135;28;20474;-75
2023/07/26 03:03:14;;;;;;;13.13;8.37;;;;;;;;;;5014042;28;21018;-75
2023/07/26 03:05:43;;;;;;;10.30;8.70;;;;;;;;;;5013972;28;20454;-75
2023/07/26 03:08:10;;;;;;;11.60;9.40;;;;;;;;;;5013898;28;20940;-75
2023/07/26 03:10:37;;;;;;;11.90;9.60;;;;;;;;;;5013760;28;20443;-75
2023/07/26 03:13:04;;;;;;;11.30;8.30;;;;;;;;;;5013850;28;20450;-75
2023/07/26 03:15:31;;;;;;;12.13;8.93;;;;;;;;;;5013622;28;20958;-75
2023/07/26 03:17:59;;;;;;;11.50;8.70;;;;;;;;;;5013946;28;20895;-75
2023/07/26 03:20:26;;;;;;;9.80;8.30;;;;;;;;;;5013760;28;20454;-75
2023/07/26 03:22:54;;;;;;;12.33;8.40;;;;;;;;;;5013552;28;20477;-75
2023/07/26 03:25:21;;;;;;;10.87;8.43;;;;;;;;;;5013833;28;20473;-75
2023/07/26 03:27:48;;;;;;;12.10;8.50;;;;;;;;;;5013737;28;20462;-75
2023/07/26 03:30:15;;;;;;;12.30;8.63;;;;;;;;;;5013796;28;20469;-75
2023/07/26 03:32:43;;;;;;;13.10;8.13;;;;;;;;;;5013502;28;20906;-75
2023/07/26 03:35:10;;;;;;;11.40;7.93;;;;;;;;;;5013423;28;20462;-75
2023/07/26 03:37:37;;;;;;;13.53;8.50;;;;;;;;;;5013755;28;20951;-75
2023/07/26 03:40:06;;;;;;;11.73;8.33;;;;;;;;;;5013273;28;20455;-75
2023/07/26 03:42:33;;;;;;;11.73;8.87;;;;;;;;;;5013181;28;20494;-75
2023/07/26 03:45:00;;;;;;;11.43;8.57;;;;;;;;;;5013471;28;20825;-75
2023/07/26 03:47:27;;;;;;;11.47;8.40;;;;;;;;;;5013633;28;20451;-75
2023/07/26 03:49:54;;;;;;;10.57;8.43;;;;;;;;;;5012294;28;20454;-75
2023/07/26 03:52:22;;;;;;;14.03;8.30;;;;;;;;;;5012457;28;20972;-75
2023/07/26 03:54:49;;;;;;;10.30;8.53;;;;;;;;;;5012186;28;20465;-75
2023/07/26 03:57:17;;;;;;;15.13;9.30;;;;;;;;;;5012522;28;20585;-75
2023/07/26 03:59:44;;;;;;;10.30;7.80;;;;;;;;;;5012602;28;20789;-75
2023/07/26 04:02:11;;;;;;;11.20;8.57;;;;;;;;;;5012199;28;20463;-75
2023/07/26 04:04:38;;;;;;;10.97;7.93;;;;;;;;;;5012393;28;20477;-75
2023/07/26 04:07:06;;;;;;;11.83;8.07;;;;;;;;;;5012351;28;20470;-75
2023/07/26 04:09:33;;;;;;;18.10;11.00;;;;;;;;;;5012513;28;20450;-75
2023/07/26 04:12:01;;;;;;;13.00;8.43;;;;;;;;;;5012214;28;20983;-74
2023/07/26 04:14:29;;;;;;;10.80;7.80;;;;;;;;;;5012139;28;20550;-74
2023/07/26 04:16:56;;;;;;;13.70;9.17;;;;;;;;;;5012589;28;20455;-74
2023/07/26 04:19:23;;;;;;;11.53;8.40;;;;;;;;;;5012043;28;20500;-75
2023/07/26 04:21:50;;;;;;;9.80;8.23;;;;;;;;;;5012001;28;20818;-75
2023/07/26 04:24:17;;;;;;;8.67;6.87;;;;;;;;;;5011844;28;20490;-75
2023/07/26 04:26:45;;;;;;;9.80;8.30;;;;;;;;;;5012239;28;20522;-74
2023/07/26 04:29:12;;;;;;;11.23;7.20;;;;;;;;;;5011881;28;20466;-75
2023/07/26 04:31:40;;;;;;;10.20;7.73;;;;;;;;;;5012290;28;20999;-75
2023/07/26 04:34:07;;;;;;;8.40;7.50;;;;;;;;;;5011910;28;20532;-74
2023/07/26 04:36:34;;;;;;;8.17;7.37;;;;;;;;;;5011935;28;20515;-74
2023/07/26 04:39:02;;;;;;;11.83;8.63;;;;;;;;;;5011986;28;20743;-75
2023/07/26 04:41:29;;;;;;;10.97;8.17;;;;;;;;;;5011930;28;20475;-74
2023/07/26 04:43:56;;;;;;;9.53;7.80;;;;;;;;;;5012161;28;20995;-75
2023/07/26 04:46:23;;;;;;;9.27;7.50;;;;;;;;;;5011737;28;20459;-74
2023/07/26 04:48:51;;;;;;;11.20;8.70;;;;;;;;;;5012107;28;20447;-75
2023/07/26 04:51:19;;;;;;;12.90;7.47;;;;;;;;;;5013778;28;20520;-75
2023/07/26 04:53:46;;;;;;;9.97;8.83;;;;;;;;;;5015667;28;21056;-74
2023/07/26 04:56:15;;;;;;;11.50;9.77;;;;;;;;;;5015411;28;20463;-75
2023/07/26 04:58:42;;;;;;;8.17;7.37;;;;;;;;;;5015714;28;20975;-75
2023/07/26 05:01:09;;;;;;;11.40;8.37;;;;;;;;;;5015289;28;20477;-75
2023/07/26 05:03:38;;;;;;;8.23;7.40;;;;;;;;;;5015328;28;21013;-74
2023/07/26 05:06:07;;;;;;;11.70;8.13;;;;;;;;;;5015377;28;20457;-75
2023/07/26 05:08:34;;;;;;;10.03;7.73;;;;;;;;;;5014959;28;20458;-75
2023/07/26 05:11:01;;;;;;;9.97;7.20;;;;;;;;;;5015407;28;21037;-75
2023/07/26 05:13:28;;;;;;;10.40;9.30;;;;;;;;;;5015168;28;20431;-75
2023/07/26 05:15:55;;;;;;;11.90;7.30;;;;;;;;;;5015368;28;20821;-75
2023/07/26 05:18:23;;;;;;;10.60;8.83;;;;;;;;;;5014644;28;20462;-74
2023/07/26 05:20:51;;;;;;;9.10;8.20;;;;;;;;;;5015250;28;20493;-75
2023/07/26 05:23:19;;;;;;;10.57;8.43;;;;;;;;;;5014840;28;20486;-75
2023/07/26 05:25:47;;;;;;;8.33;7.33;;;;;;;;;;5014965;28;20462;-75
2023/07/26 05:28:14;;;;;;;9.27;8.00;;;;;;;;;;5014621;28;20470;-75
2023/07/26 05:30:41;;;;;;;8.43;7.50;;;;;;;;;;5014126;28;20950;-74
2023/07/26 05:33:09;;;;;;;8.40;7.43;;;;;;;;;;5014809;28;20442;-75
2023/07/26 05:35:36;;;;;;;12.30;7.10;;;;;;;;;;5014271;28;20469;-75
2023/07/26 05:38:03;;;;;;;10.10;7.60;;;;;;;;;;5014800;28;20458;-75
2023/07/26 05:40:32;;;;;;;16.53;9.47;;;;;;;;;;5016486;28;20441;-74
2023/07/26 05:42:59;;;;;;;17.23;7.50;;;;;;;;;;5054368;28;20532;-75
2023/07/26 05:45:26;;;;;;;7.70;6.80;;;;;;;;;;5053917;28;20452;-75
2023/07/26 05:47:53;;;;;;;9.20;6.33;;;;;;;;;;5054014;28;20449;-75
2023/07/26 05:50:20;;;;;;;8.67;6.47;;;;;;;;;;5054176;28;20451;-75
2023/07/26 05:52:47;;;;;;;7.87;6.37;;;;;;;;;;5054018;28;20992;-74
2023/07/26 05:55:14;;;;;;;6.70;6.10;;;;;;;;;;5053799;28;20452;-75
2023/07/26 05:57:43;;;;;;;8.07;5.53;;;;;;;;;;5053922;28;20452;-74
2023/07/26 06:00:13;;;;;;;7.03;5.80;;;;;;;;;;5053995;28;20471;-75
2023/07/26 06:02:40;;;;;;;5.43;4.90;;;;;;;;;;5052580;28;20481;-75
2023/07/26 06:05:08;;;;;;;5.87;4.70;;;;;;;;;;5054955;28;20485;-78
2023/07/26 06:07:35;;;;;;;6.07;4.70;;;;;;;;;;5056476;28;20465;-78
2023/07/26 06:10:03;;;;;;;4.30;3.80;;;;;;;;;;5055775;28;20457;-78
2023/07/26 06:12:30;;;;;;;5.60;4.10;;;;;;;;;;5056077;28;21031;-78
2023/07/26 06:14:59;;;;;;;8.10;4.80;;;;;;;;;;5055585;28;20452;-78
2023/07/26 06:17:26;;;;;;;4.70;4.30;;;;;;;;;;5055674;28;20460;-77
2023/07/26 06:19:53;;;;;;;6.17;5.57;;;;;;;;;;5056253;28;20463;-78
2023/07/26 06:22:20;;;;;;;5.53;4.80;;;;;;;;;;5056122;28;20472;-78
2023/07/26 06:24:47;;;;;;;5.73;5.20;;;;;;;;;;5056008;28;20489;-78
2023/07/26 06:27:14;;;;;;;5.70;5.17;;;;;;;;;;5055822;28;20452;-78
2023/07/26 06:29:41;;;;;;;7.53;5.30;;;;;;;;;;5055914;28;20456;-78
2023/07/26 06:32:10;;;;;;;7.10;4.90;;;;;;;;;;5056066;28;20472;-77
2023/07/26 06:34:37;;;;;;;4.70;4.30;;;;;;;;;;5055430;28;20469;-78
2023/07/26 06:37:04;;;;;;;4.53;4.10;;;;;;;;;;5055202;28;20456;-78
2023/07/26 06:39:32;;;;;;;6.33;4.00;;;;;;;;;;5053970;28;20931;-77
2023/07/26 06:41:59;;;;;;;3.60;3.30;;;;;;;;;;5053953;28;20492;-77
2023/07/26 06:44:26;;;;;;;9.13;4.33;;;;;;;;;;5053446;28;20493;-77
2023/07/26 06:46:53;;;;;;;3.73;3.33;;;;;;;;;;5053585;28;20948;-77
2023/07/26 06:49:21;;;;;;;5.27;3.17;;;;;;;;;;5053596;28;20482;-77
2023/07/26 06:51:52;;;;;;;5.83;4.37;;;;;;;;;;5052960;28;20472;-77
2023/07/26 06:54:19;;;;;;;6.40;4.40;;;;;;;;;;5052839;28;20541;-77
2023/07/26 06:56:47;;;;;;;4.50;3.70;;;;;;;;;;5052857;28;20460;-76
2023/07/26 06:59:15;;;;;;;5.37;3.67;;;;;;;;;;5053258;28;20463;-76
2023/07/26 07:01:43;;;;;;;4.53;3.03;;;;;;;;;;5053166;28;20472;-76
2023/07/26 07:04:10;;;;;;;3.10;2.50;;;;;;;;;;5052481;28;20530;-76
2023/07/26 07:06:38;;;;;;;5.90;3.23;;;;;;;;;;5052638;28;20968;-75
2023/07/26 07:09:05;;;;;;;3.30;2.93;;;;;;;;;;5053387;28;20461;-77
2023/07/26 07:11:32;;;;;;;6.53;2.77;;;;;;;;;;5053767;28;20469;-78
2023/07/26 07:14:00;;;;;;;6.57;2.70;;;;;;;;;;5053204;28;20448;-78
2023/07/26 07:16:27;;;;;;;3.30;3.00;;;;;;;;;;5053114;28;20452;-75
2023/07/26 07:18:54;;;;;;;4.70;2.40;;;;;;;;;;5052290;28;20580;-76
2023/07/26 07:21:21;;;;;;;2.10;1.90;;;;;;;;;;5051875;28;20457;-76
2023/07/26 07:23:50;;;;;;;2.93;2.37;;;;;;;;;;5052111;28;20491;-75
2023/07/26 07:26:18;;;;;;;8.00;2.90;;;;;;;;;;5052210;28;20453;-76
2023/07/26 07:28:45;;;;;;;4.67;2.63;;;;;;;;;;5053160;28;20475;-78
2023/07/26 07:31:12;;;;;;;5.17;3.10;;;;;;;;;;5053201;28;20499;-77
2023/07/26 07:33:39;;;;;;;3.63;3.30;;;;;;;;;;5053213;28;20465;-77
2023/07/26 07:36:07;;;;;;;3.20;3.00;;;;;;;;;;5052868;28;20457;-77
2023/07/26 07:38:34;;;;;;;4.03;3.53;;;;;;;;;;5053691;28;20475;-77
2023/07/26 07:41:02;;;;;;;3.50;3.20;;;;;;;;;;5053459;28;20488;-78
2023/07/26 07:43:29;;;;;;;8.33;3.47;;;;;;;;;;5054192;28;20460;-77
2023/07/26 07:45:56;;;;;;;4.43;3.10;;;;;;;;;;5053216;28;20491;-77
2023/07/26 07:48:26;;;;;;;8.13;4.50;;;;;;;;;;5051768;28;20468;-77
2023/07/26 07:50:56;;;;;;;9.37;3.60;;;;;;;;;;5049953;28;20476;-77
2023/07/26 07:53:23;;;;;;;4.17;3.83;;;;;;;;;;5052557;28;20945;-77
2023/07/26 07:55:50;;;;;;;7.07;4.53;;;;;;;;;;5053004;28;20488;-77
2023/07/26 07:58:20;;;;;;;4.90;4.33;;;;;;;;;;5052429;28;20459;-77
2023/07/26 08:00:47;;;;;;;14.63;5.00;;;;;;;;;;5052417;28;20503;-77
2023/07/26 08:03:14;;;;;;;8.03;4.70;;;;;;;;;;5052579;28;20513;-76
2023/07/26 08:05:42;;;;;;;8.07;4.93;;;;;;;;;;5052090;28;20488;-77
2023/07/26 08:08:09;;;;;;;6.80;5.50;;;;;;;;;;5045052;28;20462;-76
2023/07/26 08:10:38;;;;;;;8.33;5.40;;;;;;;;;;5031547;28;20462;-77
2023/07/26 08:13:06;;;;;;;10.30;5.90;;;;;;;;;;5032046;28;20462;-76
2023/07/26 08:15:34;;;;;;;6.10;5.50;;;;;;;;;;5031309;28;20461;-77
2023/07/26 08:18:02;;;;;;;8.93;5.47;;;;;;;;;;5031243;28;20890;-76
2023/07/26 08:20:33;;;;;;;5.73;5.23;;;;;;;;;;5031461;28;20883;-77
2023/07/26 08:23:00;;;;;;;9.20;6.67;;;;;;;;;;5031040;28;20458;-77
2023/07/26 08:25:27;;;;;;;6.73;5.33;;;;;;;;;;5030423;28;20493;-76
2023/07/26 08:27:55;;;;;;;8.00;7.23;;;;;;;;;;5015468;28;20481;-77
2023/07/26 08:30:22;;;;;;;8.80;5.77;;;;;;;;;;5015130;28;20459;-77
2023/07/26 08:32:51;;;;;;;9.17;6.20;;;;;;;;;;5014987;28;20482;-77
2023/07/26 08:35:18;;;;;;;7.50;5.53;;;;;;;;;;5014945;28;20466;-77
2023/07/26 08:37:45;;;;;;;6.60;4.60;;;;;;;;;;5014609;28;20454;-77
2023/07/26 08:40:13;;;;;;;6.43;4.30;;;;;;;;;;5015023;28;20815;-79
2023/07/26 08:42:40;;;;;;;6.07;5.03;;;;;;;;;;5015437;28;20853;-77
2023/07/26 08:45:08;;;;;;;3.77;3.43;;;;;;;;;;5015324;28;20497;-77
2023/07/26 08:47:36;;;;;;;5.67;4.07;;;;;;;;;;5016403;28;20859;-77
2023/07/26 08:50:05;;;;;;;4.43;3.40;;;;;;;;;;5016770;28;20466;-78
2023/07/26 08:52:33;;;;;;;3.50;3.20;;;;;;;;;;5016110;28;20486;-77
2023/07/26 08:55:01;;;;;;;3.60;3.30;;;;;;;;;;5016301;28;20469;-78
2023/07/26 08:57:28;;;;;;;5.43;3.67;;;;;;;;;;5017333;28;20625;-77
2023/07/26 08:59:55;;;;;;;5.67;4.20;;;;;;;;;;5017244;28;20450;-78
2023/07/26 09:02:23;;;;;;;6.53;5.00;;;;;;;;;;5017186;28;20959;-77
2023/07/26 09:04:50;;;;;;;6.20;5.20;;;;;;;;;;5017058;28;20478;-78
2023/07/26 09:07:19;;;;;;;6.40;4.97;;;;;;;;;;5016108;28;20450;-77
2023/07/26 09:09:46;;;;;;;8.27;6.23;;;;;;;;;;5015133;28;20473;-78
2023/07/26 09:12:24;;;;;;;7.00;6.30;;;;;;;;;;5015218;28;20482;-78
2023/07/26 09:14:54;;;;;;;7.23;6.37;;;;;;;;;;5015649;28;20431;-77
2023/07/26 09:17:21;;;;;;;8.20;7.00;;;;;;;;;;5014669;28;20451;-76
2023/07/26 09:19:51;;;;;;;8.30;7.60;;;;;;;;;;5014973;28;20451;-77
2023/07/26 09:22:20;;;;;;;7.53;6.80;;;;;;;;;;5015380;28;20470;-77
2023/07/26 09:24:50;;;;;;;7.53;6.53;;;;;;;;;;5016588;28;20550;-78
2023/07/26 09:27:19;;;;;;;8.83;8.00;;;;;;;;;;5016044;28;20454;-78
2023/07/26 09:29:55;;;;;;;10.37;9.03;;;;;;;;;;5016260;28;20463;-77
2023/07/26 09:32:27;;;;;;;13.63;10.50;;;;;;;;;;5015777;28;20477;-77
2023/07/26 09:34:55;;;;;;;12.00;7.93;;;;;;;;;;5016406;28;20458;-77
2023/07/26 09:37:23;;;;;;;13.63;8.53;;;;;;;;;;5015682;28;20814;-77
2023/07/26 09:39:51;;;;;;;10.73;8.30;;;;;;;;;;5015981;28;20454;-78
2023/07/26 09:42:18;;;;;;;9.30;8.30;;;;;;;;;;5016857;28;20474;-78
2023/07/26 09:44:46;;;;;;;10.47;9.10;;;;;;;;;;5015657;28;20890;-77
2023/07/26 09:47:13;;;;;;;10.20;7.93;;;;;;;;;;5015564;28;20937;-77
2023/07/26 09:49:50;;;;;;;8.33;7.50;;;;;;;;;;5015488;28;20462;-77
2023/07/26 09:52:19;;;;;;;11.60;8.20;;;;;;;;;;5015813;28;20482;-77
2023/07/26 09:54:48;;;;;;;10.87;8.07;;;;;;;;;;5016026;28;20477;-78
2023/07/26 09:57:15;;;;;;;11.97;7.10;;;;;;;;;;5015272;28;20799;-77
2023/07/26 09:59:43;;;;;;;9.10;7.10;;;;;;;;;;5015268;28;20501;-77
2023/07/26 10:02:13;;;;;;;5.70;5.13;;;;;;;;;;5015492;28;20477;-77
2023/07/26 10:04:43;;;;;;;5.70;5.20;;;;;;;;;;5015264;28;20483;-77
2023/07/26 10:07:13;;;;;;;6.43;4.50;;;;;;;;;;5015188;28;20465;-77
2023/07/26 10:09:43;;;;;;;8.87;3.43;;;;;;;;;;5015478;28;20465;-77
2023/07/26 10:12:11;;;;;;;3.40;3.10;;;;;;;;;;5015363;28;20486;-77
2023/07/26 10:14:39;;;;;;;4.13;3.73;;;;;;;;;;5015418;28;20451;-77
2023/07/26 10:17:07;;;;;;;5.50;3.47;;;;;;;;;;5015266;28;20481;-77
2023/07/26 10:19:34;;;;;;;3.20;2.90;;;;;;;;;;5015135;28;20815;-76
2023/07/26 10:22:01;;;;;;;3.97;3.23;;;;;;;;;;5014520;28;20482;-77
2023/07/26 10:24:28;;;;;;;3.13;2.83;;;;;;;;;;5015504;28;20490;-77
2023/07/26 10:26:56;;;;;;;6.17;3.40;;;;;;;;;;5015338;28;20951;-77
2023/07/26 10:29:26;;;;;;;3.80;3.50;;;;;;;;;;5015113;28;20481;-77
2023/07/26 10:32:01;;;;;;;12.43;4.70;;;;;;;;;;5014945;28;20478;-78
2023/07/26 10:34:28;;;;;;;4.77;4.37;;;;;;;;;;5015245;28;20853;-78
2023/07/26 10:36:55;;;;;;;6.00;5.37;;;;;;;;;;5014956;28;20451;-77
2023/07/26 10:39:29;;;;;;;6.77;5.83;;;;;;;;;;5014030;28;20465;-77
2023/07/26 10:41:57;;;;;;;7.30;6.00;;;;;;;;;;5014781;28;20483;-76
2023/07/26 10:44:25;;;;;;;6.90;5.50;;;;;;;;;;5013779;28;20462;-76
2023/07/26 10:46:53;;;;;;;8.30;6.07;;;;;;;;;;5013501;28;20498;-76
2023/07/26 10:49:24;;;;;;;6.73;5.40;;;;;;;;;;5013342;28;20462;-76
2023/07/26 10:51:56;;;;;;;5.60;4.60;;;;;;;;;;5013075;28;20478;-77
2023/07/26 10:54:33;;;;;;;4.87;4.37;;;;;;;;;;5013323;28;20485;-77
2023/07/26 10:57:17;;;;;;;4.77;4.30;;;;;;;;;;5013141;28;21162;-76
2023/07/26 10:59:53;;;;;;;6.30;5.70;;;;;;;;;;5013299;28;20890;-77
2023/07/26 11:02:36;;;;;;;5.93;5.33;;;;;;;;;;5013639;28;20469;-76
2023/07/26 11:05:05;;;;;;;6.70;4.50;;;;;;;;;;5013457;28;20494;-76
2023/07/26 11:07:51;;;;;;;4.53;4.10;;;;;;;;;;5013427;28;20458;-77
2023/07/26 11:10:21;;;;;;;4.70;4.20;;;;;;;;;;5012974;28;20960;-76
2023/07/26 11:12:52;;;;;;;4.53;4.13;;;;;;;;;;5012876;28;20841;-76
2023/07/26 11:15:37;;;;;;;6.10;3.00;;;;;;;;;;5012716;28;20469;-75
2023/07/26 11:18:06;;;;;;;5.63;3.27;;;;;;;;;;5012455;28;20447;-76
2023/07/26 11:20:33;;;;;;;4.03;2.33;;;;;;;;;;5012522;28;20931;-76
2023/07/26 11:23:00;;;;;;;3.80;2.53;;;;;;;;;;5012472;28;20455;-76
2023/07/26 11:25:27;;;;;;;4.67;2.33;;;;;;;;;;5012599;28;20869;-76
2023/07/26 11:27:55;;;;;;;5.37;2.90;;;;;;;;;;5012386;28;20459;-77
2023/07/26 11:30:22;;;;;;;4.17;2.40;;;;;;;;;;5012622;28;20466;-77
2023/07/26 11:32:50;;;;;;;3.63;2.97;;;;;;;;;;5012459;28;20541;-77
2023/07/26 11:35:20;;;;;;;2.63;2.40;;;;;;;;;;5012451;28;20948;-77
2023/07/26 11:37:51;;;;;;;6.40;3.27;;;;;;;;;;5012642;28;20458;-77
2023/07/26 11:40:18;;;;;;;3.30;2.90;;;;;;;;;;5012132;28;21022;-77
2023/07/26 11:42:46;;;;;;;3.03;2.60;;;;;;;;;;5012332;28;20506;-76
2023/07/26 11:45:13;;;;;;;4.03;2.83;;;;;;;;;;5012378;28;20490;-77
2023/07/26 11:47:41;;;;;;;3.63;3.33;;;;;;;;;;5012662;28;20936;-77
2023/07/26 11:50:08;;;;;;;4.70;3.97;;;;;;;;;;5012655;28;20462;-77
2023/07/26 11:52:38;;;;;;;6.80;3.73;;;;;;;;;;5012998;28;20484;-76
2023/07/26 11:55:06;;;;;;;7.40;3.67;;;;;;;;;;5012274;28;20459;-76
2023/07/26 11:57:33;;;;;;;4.60;4.20;;;;;;;;;;5011910;28;20459;-76
2023/07/26 12:00:03;;;;;;;4.97;3.90;;;;;;;;;;5012317;28;20839;-76
2023/07/26 12:02:30;;;;;;;5.37;3.20;;;;;;;;;;5016002;28;20509;-76
2023/07/26 12:05:16;;;;;;;3.77;3.47;;;;;;;;;;5016274;28;20955;-77
2023/07/26 12:07:46;;;;;;;3.33;3.03;;;;;;;;;;5016218;28;20450;-76
2023/07/26 12:10:14;;;;;;;3.33;3.00;;;;;;;;;;5016577;28;20848;-76
2023/07/26 12:12:41;;;;;;;5.37;3.77;;;;;;;;;;5016092;28;20470;-76
2023/07/26 12:15:09;;;;;;;4.30;3.90;;;;;;;;;;5016100;28;20454;-77
2023/07/26 12:17:36;;;;;;;4.03;3.73;;;;;;;;;;5016239;28;20447;-77
2023/07/26 12:20:06;;;;;;;4.00;3.67;;;;;;;;;;5016039;28;20453;-77
2023/07/26 12:22:33;;;;;;;3.30;3.00;;;;;;;;;;5016189;28;20554;-77
2023/07/26 12:25:03;;;;;;;4.30;3.37;;;;;;;;;;5015614;28;20453;-77
2023/07/26 12:27:34;;;;;;;4.13;3.13;;;;;;;;;;5015852;28;20517;-77
2023/07/26 12:30:01;;;;;;;2.43;2.03;;;;;;;;;;5016454;28;20450;-78
2023/07/26 12:32:29;;;;;;;2.37;2.17;;;;;;;;;;5016696;28;20474;-77
2023/07/26 12:34:56;;;;;;;2.70;2.50;;;;;;;;;;5016973;28;20462;-78
2023/07/26 12:37:32;;;;;;;3.20;2.90;;;;;;;;;;5016794;28;20974;-78
2023/07/26 12:39:59;;;;;;;2.43;2.23;;;;;;;;;;5016429;28;20665;-77
2023/07/26 12:42:29;;;;;;;3.10;2.50;;;;;;;;;;5016881;28;20509;-78
2023/07/26 12:44:56;;;;;;;2.90;2.57;;;;;;;;;;5015578;28;20462;-76
2023/07/26 12:47:23;;;;;;;2.97;2.60;;;;;;;;;;5015043;28;20515;-75
2023/07/26 12:49:51;;;;;;;2.40;2.20;;;;;;;;;;5015498;28;20446;-76
2023/07/26 12:52:18;;;;;;;2.60;2.40;;;;;;;;;;5015405;28;20489;-76
2023/07/26 12:54:45;;;;;;;3.60;2.40;;;;;;;;;;5015157;28;20471;-76
2023/07/26 12:57:12;;;;;;;3.83;2.70;;;;;;;;;;5015128;28;20963;-76
2023/07/26 12:59:40;;;;;;;3.40;2.80;;;;;;;;;;5015135;28;20465;-76
2023/07/26 13:02:07;;;;;;;4.43;2.90;;;;;;;;;;5015153;28;20531;-76
2023/07/26 13:04:35;;;;;;;2.57;2.30;;;;;;;;;;5015092;28;20455;-76
2023/07/26 13:07:02;;;;;;;3.37;2.63;;;;;;;;;;5014881;28;20490;-77
2023/07/26 13:09:29;;;;;;;3.70;2.37;;;;;;;;;;5014935;28;20920;-76
2023/07/26 13:11:57;;;;;;;3.10;2.80;;;;;;;;;;5014350;28;20482;-77
2023/07/26 13:14:24;;;;;;;3.17;2.90;;;;;;;;;;5014933;28;20454;-76
2023/07/26 13:16:52;;;;;;;3.53;3.23;;;;;;;;;;5027549;28;20450;-76
2023/07/26 13:19:19;;;;;;;3.97;3.67;;;;;;;;;;5033111;28;20465;-76
2023/07/26 13:21:47;;;;;;;5.70;5.20;;;;;;;;;;5033201;28;20481;-77
2023/07/26 13:24:14;;;;;;;10.13;6.30;;;;;;;;;;5033425;28;20446;-76
2023/07/26 13:26:41;;;;;;;5.07;4.00;;;;;;;;;;5032980;28;20485;-77
2023/07/26 13:29:08;;;;;;;5.37;3.77;;;;;;;;;;5032899;28;20458;-76
2023/07/26 13:31:35;;;;;;;5.53;2.93;;;;;;;;;;5032924;28;20484;-75
2023/07/26 13:34:05;;;;;;;4.13;3.17;;;;;;;;;;5032912;28;20506;-75
2023/07/26 13:36:32;;;;;;;4.53;2.90;;;;;;;;;;5032794;28;20460;-76
2023/07/26 13:38:59;;;;;;;3.50;3.20;;;;;;;;;;5032291;28;20465;-76
2023/07/26 13:41:26;;;;;;;4.90;2.77;;;;;;;;;;5032817;28;20474;-76
2023/07/26 13:43:53;;;;;;;6.93;3.57;;;;;;;;;;5032835;28;20450;-76
2023/07/26 13:46:20;;;;;;;4.67;2.27;;;;;;;;;;5032686;28;20497;-76
2023/07/26 13:48:48;;;;;;;4.10;2.40;;;;;;;;;;5032479;28;20454;-75
2023/07/26 13:51:16;;;;;;;4.80;2.90;;;;;;;;;;5032664;28;20966;-76
2023/07/26 13:53:43;;;;;;;4.23;2.80;;;;;;;;;;5032128;28;20561;-75
2023/07/26 13:56:10;;;;;;;4.63;2.63;;;;;;;;;;5032654;28;20462;-75
2023/07/26 13:58:37;;;;;;;7.90;2.63;;;;;;;;;;5032503;28;20525;-76
2023/07/26 14:01:05;;;;;;;5.70;2.90;;;;;;;;;;5032544;28;20486;-76
2023/07/26 14:03:32;;;;;;;4.20;3.10;;;;;;;;;;5032279;28;20809;-76
2023/07/26 14:05:59;;;;;;;5.33;3.30;;;;;;;;;;5032536;28;20485;-75
2023/07/26 14:08:27;;;;;;;5.23;3.53;;;;;;;;;;5032300;28;20445;-75
2023/07/26 14:10:54;;;;;;;4.23;3.63;;;;;;;;;;5032226;28;21057;-76
2023/07/26 14:13:21;;;;;;;5.80;4.00;;;;;;;;;;5032401;28;20521;-75
2023/07/26 14:15:49;;;;;;;4.00;3.17;;;;;;;;;;5031716;28;20931;-76
2023/07/26 14:18:16;;;;;;;5.57;3.50;;;;;;;;;;5032209;28;20453;-75
2023/07/26 14:20:43;;;;;;;6.60;3.07;;;;;;;;;;5033085;28;20450;-74
2023/07/26 14:23:10;;;;;;;7.87;4.57;;;;;;;;;;5032357;28;20556;-75
2023/07/26 14:25:38;;;;;;;6.00;3.90;;;;;;;;;;5033032;28;20461;-75
2023/07/26 14:28:05;;;;;;;7.43;5.67;;;;;;;;;;5032940;28;20457;-75
2023/07/26 14:30:33;;;;;;;5.63;3.80;;;;;;;;;;5032956;28;20457;-75
2023/07/26 14:33:00;;;;;;;5.30;3.73;;;;;;;;;;5033017;28;20461;-74
2023/07/26 14:35:27;;;;;;;11.10;7.03;;;;;;;;;;5032682;28;20501;-76
2023/07/26 14:37:54;;;;;;;14.80;7.27;;;;;;;;;;5032607;28;20458;-74
2023/07/26 14:40:21;;;;;;;13.43;6.80;;;;;;;;;;5031597;28;20938;-75
2023/07/26 14:42:49;;;;;;;5.20;3.30;;;;;;;;;;5032686;28;20474;-74
2023/07/26 14:45:18;;;;;;;4.33;3.30;;;;;;;;;;5032779;28;20938;-75